Flight Track Log - Related Links

Times and Time Zones

All times are in EDT time to prevent confusion due to time zone crossing. See the SKW4728 flight status page for this flight to view local times or setup timezone preferences in your user account.

Time Position Orientation Groundspeed Altitude Reporting Facility
EDT Latitude Longitude Course Direction KTS MPH feet Rate Location/Type
Mon 04:29:06 PM 42.4594 -122.8358 33° Northeast 224 258 4,700  Level Seattle Center
Mon 04:31:00 PM 42.3768 -122.5852 111° Southeast  Level FlightAware Approximate
Mon 04:31:00 PM 42.3520 -122.4911 109° East  Level FlightAware Approximate
Mon 04:32:00 PM 42.3207 -122.3534 105° East  Level FlightAware Approximate
Mon 04:33:00 PM 42.2846 -122.2180 111° Southeast  Level FlightAware Approximate
Mon 04:34:11 PM 42.4083 -122.3706 99° East 302 348 16,400  Level Seattle Center
Mon 04:36:00 PM 42.3782 -122.1397 104° East  Level FlightAware Approximate
Mon 04:37:14 PM 42.3550 -122.0233 104° East 315 362 22,100  Level Seattle Center
Mon 04:38:00 PM 42.2866 -121.6184 99° East  Level FlightAware Approximate
Mon 04:38:15 PM 42.3367 -121.9019 102° East 325 374 23,500  Level Seattle Center
Mon 04:39:00 PM 42.2704 -121.4812 99° East  Level FlightAware Approximate
Mon 04:39:16 PM 42.3164 -121.7794 103° East 330 380 24,700  Level Seattle Center
Mon 04:40:17 PM 42.2967 -121.6542 102° East 335 386 25,800 959 Climbing Seattle Center
Mon 04:42:00 PM 42.2621 -121.4202 102° East  Level FlightAware Approximate
Mon 04:43:20 PM 42.2342 -121.2656 102° East 353 406 28,600  Level Seattle Center
Mon 04:45:00 PM 42.2333 -121.0312 90° East  Level FlightAware Approximate
Mon 04:46:22 PM 42.2558 -120.8339 90° East 355 409 31,500  Level Seattle Center
Mon 04:47:23 PM 42.2628 -120.6981 86° East 361 415 32,000 492 Climbing Seattle Center
Mon 04:48:24 PM 42.2689 -120.5581 87° East 372 428 32,500 345 Climbing Seattle Center
Mon 04:50:17 PM 42.2392 -120.2997 99° East 379 436 33,000 172 Climbing Salt Lake Center
Mon 04:51:18 PM 42.2106 -120.1564 105° East 393 452 33,000  Level Salt Lake Center
Mon 04:52:20 PM 42.1822 -120.0147 105° East 393 452 33,000  Level Salt Lake Center
Mon 04:53:29 PM 42.1503 -119.8517 105° East 394 453 33,000  Level Seattle Center
Mon 04:54:30 PM 42.1208 -119.7103 106° East 393 452 33,000  Level Seattle Center
Mon 04:55:31 PM 42.0919 -119.5706 106° East 389 448 33,000  Level Seattle Center
Mon 04:56:31 PM 42.0625 -119.4308 106° East 389 448 33,000  Level Seattle Center
Mon 04:57:32 PM 42.0322 -119.2786 105° East 387 445 33,000  Level Seattle Center
Mon 04:58:34 PM 42.0042 -119.1467 106° East 384 442 33,000  Level Seattle Center
Mon 04:59:34 PM 41.9719 -118.9928 106° East 384 442 33,000  Level Seattle Center
Mon 05:00:31 PM 41.9478 -118.8842 107° East 380 437 33,000  Level Salt Lake Center
Mon 05:01:32 PM 41.9161 -118.7317 106° East 380 437 33,000  Level Salt Lake Center
Mon 05:02:34 PM 41.8886 -118.6011 106° East 381 438 33,000  Level Salt Lake Center
Mon 05:03:35 PM 41.8550 -118.4500 107° East 379 436 33,000  Level Salt Lake Center
Mon 05:04:37 PM 41.8272 -118.3203 106° East 378 435 33,000  Level Salt Lake Center
Mon 05:05:38 PM 41.7989 -118.1906 106° East 378 435 33,000  Level Salt Lake Center
Mon 05:07:41 PM 41.7378 -117.9100 106° East 377 434 33,000  Level Salt Lake Center
Mon 05:08:43 PM 41.7033 -117.7583 107° East 380 437 33,000  Level Salt Lake Center
Mon 05:10:00 PM 41.6654 -117.5900 107° East  Level FlightAware Approximate
Mon 05:11:47 PM 41.6114 -117.3511 107° East 375 432 33,000  Level Salt Lake Center
Mon 05:12:48 PM 41.5828 -117.2228 107° East 376 433 33,000  Level Salt Lake Center
Mon 05:13:50 PM 41.5483 -117.0711 107° East 381 438 33,000  Level Salt Lake Center
Mon 05:14:51 PM 41.5183 -116.9422 107° East 380 437 33,000  Level Salt Lake Center
Mon 05:16:00 PM 41.4839 -116.7951 107° East  Level FlightAware Approximate
Mon 05:17:00 PM 41.4543 -116.6753 107° East  Level FlightAware Approximate
Mon 05:18:57 PM 41.3842 -116.3856 108° East 385 443 33,000  Level Salt Lake Center
Mon 05:19:59 PM 41.3008 -116.3083 145° Southeast 390 449 33,000  Level Salt Lake Center
Mon 05:21:01 PM 41.1983 -116.2869 171° South 389 448 33,000  Level Salt Lake Center
Mon 05:22:02 PM 41.0772 -116.2592 170° South 392 451 33,000  Level Salt Lake Center
Mon 05:23:00 PM 41.2701 -115.9027 107° East  Level FlightAware Approximate
Mon 05:23:04 PM 40.9725 -116.2314 169° South 396 456 33,000  Level Salt Lake Center
Mon 05:24:00 PM 41.2391 -115.7757 108° East  Level FlightAware Approximate
Mon 05:25:07 PM 40.7606 -116.1353 161° South 393 452 33,000  Level Salt Lake Center
Mon 05:27:10 PM 40.7097 -115.8544 103° East 393 452 33,000  Level Salt Lake Center
Mon 05:28:12 PM 40.7128 -115.7169 88° East 391 450 33,000  Level Salt Lake Center
Mon 05:29:14 PM 40.7156 -115.5564 89° East 393 452 33,000 -389 Level Salt Lake Center
Mon 05:31:17 PM 40.7172 -115.2783 89° East 396 456 31,800 -652 Descending Salt Lake Center
Mon 05:32:18 PM 40.7206 -115.1125 88° East 403 464 31,000 -259 Descending Salt Lake Center
Mon 05:34:22 PM 40.7242 -114.8286 89° East 375 432 31,000  Level Salt Lake Center
Mon 05:35:23 PM 40.7253 -114.6936 89° East 380 437 31,000  Level Salt Lake Center
Mon 05:36:25 PM 40.7278 -114.5514 89° East 386 444 31,000 -243 Level Salt Lake Center
Mon 05:38:00 PM 40.7017 -114.3478 88° East  Level FlightAware Approximate
Mon 05:39:30 PM 40.7278 -114.0936 88° East 390 449 30,000  Level Salt Lake Center
Mon 05:41:34 PM 40.7289 -113.8186 90° East 384 442 26,300 -1,816 Descending Salt Lake Center
Mon 05:42:35 PM 40.7278 -113.6639 90° East 415 478 24,400 -1,902 Descending Salt Lake Center
Mon 05:43:37 PM 40.7269 -113.5083 90° East 424 488 22,400 -1,978 Descending Salt Lake Center
Mon 05:45:00 PM 40.7167 -113.3277 90° East  Level FlightAware Approximate
Mon 05:45:40 PM 40.7267 -113.2097 90° East 408 470 18,300  Level Salt Lake Center
Mon 05:46:42 PM 40.7250 -113.0553 91° East 345 397 17,000 -419 Descending Salt Lake Center
Mon 05:48:00 PM 40.7167 -112.8853 90° East  Level FlightAware Approximate
Mon 05:48:46 PM 40.7228 -112.8222 90° East 321 369 17,000  Level Salt Lake Center
Mon 05:49:47 PM 40.7222 -112.7100 90° East 309 356 17,000  Level Salt Lake Center
Mon 05:50:49 PM 40.7211 -112.6092 91° East 277 319 17,000  Level Salt Lake Center
Mon 05:51:51 PM 40.7233 -112.5108 88° East 271 312 17,000 -774 Level Salt Lake Center
Mon 05:53:00 PM 40.7085 -112.3675 96° East  Level FlightAware Approximate
Mon 05:53:55 PM 40.7594 -112.3011 96° East 265 305 14,600  Level Salt Lake Center
Mon 05:54:55 PM 40.7658 -112.2064 85° East 256 295 14,000 -295 Descending Salt Lake Center
Mon 05:55:57 PM 40.7211 -112.1583 141° Southeast 250 288 14,000  Level Salt Lake Center
Mon 05:56:58 PM 40.6906 -112.2450 245° Southwest 266 306 14,000  Level Salt Lake Center
Mon 05:57:59 PM 40.6269 -112.2831 204° Southwest 255 293 14,000  Level Salt Lake Center
Mon 05:59:00 PM 40.5564 -112.3067 194° South 258 297 14,000  Level Salt Lake Center
Mon 06:00:00 PM 40.6240 -112.2112 47° Northeast  Level Estimated
Mon 06:01:01 PM 40.4858 -112.2317 47° Northeast 262 302 14,000  Level Salt Lake Center
Mon 06:02:02 PM 40.5178 -112.1533 62° Northeast 259 298 14,000  Level Salt Lake Center
Mon 06:03:09 PM 40.5747 -112.0953 38° Northeast 263 303 14,000 -284 Level Salt Lake Center
Mon 06:05:12 PM 40.7167 -112.0961 360° North 255 293 13,100 -734 Descending Salt Lake Center
Mon 06:07:06 PM 40.8461 -112.1047 357° North 233 268 11,100 -720 Descending Salt Lake Center
Mon 06:08:07 PM 40.9131 -112.1050 360° North 233 268 11,000 -682 Descending Salt Lake Center
Mon 06:09:18 PM 40.9872 -112.1067 359° North 228 262 9,600 -1,131 Descending Salt Lake Center
Mon 06:10:09 PM 41.0083 -112.0528 63° Northeast 222 255 8,700 -1,210 Descending Salt Lake Center
Mon 06:11:22 PM 40.9581 -112.0153 151° Southeast 188 216 7,100 -1,071 Descending Salt Lake Center
Mon 06:13:25 PM 40.8578 -112.0053 176° South 179 206 5,200 -873 Descending Salt Lake Center
Mon 06:14:07 PM 40.8264 -112.0039 178° South 134 154 4,700 -714 Descending Salt Lake Center

Login

Don't have an account? Register now (free) for customized features, flight alerts, and more!